ADDS TAF Board (Experimental) INFO

IDs: Format: Expanded Condensed

Updated at: 1149 UTC 19 Sep 2014

KEWR - Newark Intl, NJ, US

Issued at 1130 UTC 19 Sep 2014
Time1133Z19/12Z19/13Z19/14Z19/15Z19/16Z19/17Z19/18Z19/19Z19/20Z19/21Z19/22Z19/23Z20/00Z
TypeOBSPRVL
  [TEMP]  
PRVLPRVLPRVLPRVLPRVLPRVLPRVLPRVLPRVLPRVLPRVLPRVL
VIS10>6>6>6>6>6>6>6>6>6>6>6>6>6
CIG85--
  [20]  
------------------------
CoverBKNSCT
  [BKN]  
SCTSCTSCTSCTSCTSCTSCTSCTSCTSCTSCTSCT
FltCat--VFR
  [MVFR]  
VFRVFRVFRVFRVFRVFRVFRVFRVFRVFRVFRVFR
WX----
  [--]  
------------------------
WDir2020
[20]
2020505050509090120120120120
WSpd1112
  [12]  
12121010101010108888
WGst----
  [--]  
------------------------
R04/22
XWnd1111-4-4-4-4-9-9-8-8-8-8
XGst--0------------------------
HWnd11121212999944-1-1-1-1
HGst--0------------------------
R11/29
XWnd11121212777711-3-3-3-3
XGst--0------------------------
HWnd3333777710107777
HGst--0------------------------
Raw TAF
KEWR 191130Z 1912/2018 02012KT P6SM FEW025 SCT070
  TEMPO 1912/1913 BKN020
  FM191500 05010KT P6SM FEW030 SCT050
  FM191900 09010KT P6SM SCT030
  FM192100 12008KT P6SM SCT035
  FM200600 12005KT P6SM SCT030
  FM200900 14004KT P6SM BKN030
  FM201500 17010KT P6SM BKN035


Raw METAR
KEWR 191133Z 02011KT 10SM SCT018 BKN085 13/08 A3028 RMK AO2 SCT V BKN
KEWR 191116Z 02013KT 10SM BKN019 BKN085 BKN250 12/08 A3027 RMK AO2 BKN019 V SCT
KEWR 191051Z 01014KT 10SM SCT015 BKN085 BKN250 12/08 A3026 RMK AO2 SLP247 T01220083

TAF Board Legend

Hazard VFR MVFR IFR LIFR
Visibility (sm) >5 3≤X≤5 1≤X<3 <1
Ceiling (100 ft) >30 10≤X≤30 5≤X<10 <5
Wind Speed (kt) <10 10≤X<20 20≤X<30 ≥30
Wind Gust (kt) <15 15≤X<25 25≤X<35 ≥35
Weather No Wx Reported VCTS,-TS,-FZRA TS,FZRA +TS,+FZRA


Page loaded:  11:49 UTC  |   04:49 AM Pacific  |   05:49 AM Mountain  |   06:49 AM Central  |   07:49 AM Eastern

 

ADVISORIES

FORECASTS

FORECASTS

OBSERVATIONS

USER TOOLS

ABOUT US